Terminal Aerodrome Forecast
Issued by NWS

Home | Current Version | Previous Version | Text Only | Print | Product List | Glossary On
Versions: 1 2 3 4 5 6 7 8 9 10 11 12 13 14 15 16
392
FTUS41 KAKQ 142326
TAFPHF
TAF
KPHF 142326Z 1500/1524 VRB04KT P6SM BKN080 OVC200
     FM150400 11003KT P6SM -SN FEW030 OVC060
     FM150600 08008KT 3SM -SN BKN008 OVC020
     FM150900 09005KT 1 1/2SM -SN BR OVC007
     FM151600 07008KT 2SM -FZRA BR OVC005
     FM152100 10007KT 2SM -RA BR OVC005=

USA.gov is the U.S. government's official web portal to all federal, state and local government web resources and services.